createdAt,value
2023-05-24T00:02:14.210Z,98968.00
2023-05-24T00:04:42.703Z,98942.94
2023-05-24T00:07:12.712Z,98967.44
2023-05-24T00:09:40.748Z,98966.31
2023-05-24T00:12:08.899Z,98969.94
2023-05-24T00:14:37.087Z,98973.63
2023-05-24T00:17:05.358Z,98983.00
2023-05-24T00:19:33.515Z,98977.25
2023-05-24T00:22:01.472Z,98986.16
2023-05-24T00:24:30.799Z,98985.84
2023-05-24T00:26:58.724Z,98984.53
2023-05-24T00:29:26.695Z,98980.13
2023-05-24T00:31:54.742Z,98985.97
2023-05-24T00:34:22.740Z,98988.63
2023-05-24T00:36:50.800Z,98989.16
2023-05-24T00:39:18.766Z,98988.56
2023-05-24T00:41:48.131Z,98989.44
2023-05-24T00:44:16.085Z,98994.06
2023-05-24T00:46:44.090Z,98988.75
2023-05-24T00:49:12.156Z,98996.13
2023-05-24T00:51:40.282Z,98994.72
2023-05-24T00:54:08.369Z,98995.28
2023-05-24T00:56:36.764Z,98994.97
2023-05-24T00:59:06.461Z,98980.19
2023-05-24T01:01:34.511Z,98986.69
2023-05-24T01:04:03.170Z,98985.00
2023-05-24T01:06:33.171Z,98983.72
2023-05-24T01:09:21.104Z,98985.13
2023-05-24T01:12:01.209Z,98979.38
2023-05-24T01:14:36.852Z,98979.16
2023-05-24T01:17:09.498Z,98975.56
2023-05-24T01:20:08.186Z,98984.72
2023-05-24T01:23:05.165Z,98994.03
2023-05-24T01:25:55.244Z,98988.25
2023-05-24T01:28:25.850Z,98974.16
2023-05-24T01:30:54.121Z,98975.31
2023-05-24T01:33:23.090Z,98961.66
2023-05-24T01:35:51.160Z,98981.22
2023-05-24T01:38:19.143Z,98979.78
2023-05-24T01:40:51.217Z,98969.06
2023-05-24T01:43:24.479Z,98980.25
2023-05-24T01:46:04.767Z,98971.66
2023-05-24T01:48:39.624Z,98971.81
2023-05-24T01:51:11.778Z,98969.50
2023-05-24T01:53:43.386Z,98966.16
2023-05-24T01:56:13.070Z,98951.72
2023-05-24T01:58:43.178Z,98919.47
2023-05-24T02:01:13.568Z,98960.13
2023-05-24T02:03:41.727Z,98954.47
2023-05-24T02:06:10.887Z,98947.72
2023-05-24T02:08:38.920Z,98962.94
2023-05-24T02:11:07.068Z,98958.72
2023-05-24T02:13:35.017Z,98962.50
2023-05-24T02:16:05.220Z,98957.03
2023-05-24T02:18:35.090Z,98954.75
2023-05-24T02:21:03.414Z,98954.09
2023-05-24T02:23:31.754Z,98955.63
2023-05-24T02:25:59.842Z,98945.63
2023-05-24T02:28:28.524Z,98946.63
2023-05-24T02:30:56.520Z,98926.59
2023-05-24T02:33:25.693Z,98955.31
2023-05-24T02:35:55.068Z,98955.16
2023-05-24T02:38:23.329Z,98939.84
2023-05-24T02:40:51.270Z,98915.97
2023-05-24T02:43:19.329Z,98938.94
2023-05-24T02:45:47.445Z,98936.59
2023-05-24T02:48:15.428Z,98929.97
2023-05-24T02:50:43.675Z,98940.97
2023-05-24T02:53:13.197Z,98930.38
2023-05-24T02:55:44.152Z,98937.31
2023-05-24T02:58:12.264Z,98930.44
2023-05-24T03:00:40.517Z,98933.81
2023-05-24T03:03:08.644Z,98930.69
2023-05-24T03:05:36.665Z,98883.75
2023-05-24T03:08:04.613Z,98919.03
2023-05-24T03:10:33.962Z,98929.03
2023-05-24T03:13:01.870Z,98920.25
2023-05-24T03:15:29.823Z,98917.84
2023-05-24T03:17:58.022Z,98922.31
2023-05-24T03:20:26.060Z,98923.59
2023-05-24T03:22:54.014Z,98927.63
2023-05-24T03:25:22.136Z,98934.53
2023-05-24T03:27:51.485Z,98928.09
2023-05-24T03:30:19.534Z,98932.38
2023-05-24T03:32:47.520Z,98939.00
2023-05-24T03:35:15.514Z,98937.97
2023-05-24T03:37:43.434Z,98945.66
2023-05-24T03:40:11.967Z,98941.59
2023-05-24T03:42:40.152Z,98949.53
2023-05-24T03:45:10.914Z,98931.13
2023-05-24T03:47:38.873Z,98954.66
2023-05-24T03:50:07.765Z,98956.53
2023-05-24T03:52:35.840Z,98959.94
2023-05-24T03:55:03.872Z,98958.25
2023-05-24T03:57:32.609Z,98965.16
2023-05-24T04:00:00.965Z,98970.75
2023-05-24T04:02:30.301Z,98956.44
2023-05-24T04:04:58.227Z,98933.34
2023-05-24T04:07:26.186Z,98960.75
2023-05-24T04:09:56.822Z,98965.31
2023-05-24T04:12:24.769Z,98964.38
2023-05-24T04:14:52.958Z,98962.06
2023-05-24T04:17:24.982Z,98969.81
2023-05-24T04:19:54.714Z,98968.13
2023-05-24T04:22:24.301Z,98968.34
2023-05-24T04:24:54.330Z,98975.13
2023-05-24T04:27:22.297Z,98981.06
2023-05-24T04:29:50.711Z,98940.06
2023-05-24T04:32:19.917Z,98972.34
2023-05-24T04:34:47.941Z,98967.06
2023-05-24T04:37:17.501Z,98962.09
2023-05-24T04:39:45.647Z,98972.00
2023-05-24T04:42:14.432Z,98976.94
2023-05-24T04:44:42.770Z,98909.78
2023-05-24T04:47:10.876Z,98940.44
2023-05-24T04:49:39.178Z,98957.31
2023-05-24T04:52:07.965Z,98966.97
2023-05-24T04:54:37.327Z,98968.38
2023-05-24T04:57:05.493Z,98969.31
2023-05-24T04:59:33.483Z,98962.75
2023-05-24T05:02:01.491Z,98972.44
2023-05-24T05:04:29.599Z,98965.03
2023-05-24T05:06:59.001Z,98959.81
2023-05-24T05:09:28.240Z,98965.41
2023-05-24T05:11:58.375Z,98962.75
2023-05-24T05:14:26.352Z,98962.91
2023-05-24T05:16:54.371Z,98958.38
2023-05-24T05:19:22.368Z,98959.56
2023-05-24T05:21:50.967Z,98957.53
2023-05-24T05:24:20.508Z,98956.53
2023-05-24T05:26:48.484Z,98956.50
2023-05-24T05:29:17.894Z,98963.22
2023-05-24T05:31:48.854Z,98925.81
2023-05-24T05:34:16.812Z,98969.91
2023-05-24T05:36:50.818Z,98971.94
2023-05-24T05:39:19.218Z,98965.94
2023-05-24T05:41:47.296Z,98968.63
2023-05-24T05:44:18.610Z,98961.59
2023-05-24T05:46:51.808Z,98958.94
2023-05-24T05:49:21.582Z,98964.06
2023-05-24T05:51:50.755Z,98964.66
2023-05-24T05:54:20.704Z,98976.22
2023-05-24T05:56:48.671Z,98977.16
2023-05-24T05:59:20.620Z,98986.13
2023-05-24T06:01:52.215Z,98978.47
2023-05-24T06:04:20.408Z,98928.25
2023-05-24T06:06:54.109Z,98984.88
2023-05-24T06:09:25.731Z,98989.50
2023-05-24T06:11:54.242Z,98982.00
2023-05-24T06:14:22.771Z,98965.91
2023-05-24T06:16:54.627Z,98985.47
2023-05-24T06:19:22.595Z,98992.84
2023-05-24T06:21:50.902Z,98991.72
2023-05-24T06:24:21.497Z,98974.44
2023-05-24T06:26:54.273Z,99005.22
2023-05-24T06:29:23.074Z,99002.00
2023-05-24T06:31:53.355Z,98998.97
2023-05-24T06:34:22.573Z,99010.41
2023-05-24T06:36:52.398Z,99005.13
2023-05-24T06:39:21.208Z,99002.25
2023-05-24T06:41:51.766Z,98951.06
2023-05-24T06:44:21.433Z,99008.25
2023-05-24T06:46:53.980Z,99012.09
2023-05-24T06:49:22.882Z,99021.16
2023-05-24T06:51:50.858Z,98942.78
2023-05-24T06:54:18.843Z,99027.00
2023-05-24T06:56:46.844Z,99023.16
2023-05-24T06:59:14.862Z,99036.72
2023-05-24T07:01:43.232Z,99036.19
2023-05-24T07:04:12.825Z,99041.47
2023-05-24T07:06:40.806Z,99036.69
2023-05-24T07:09:10.472Z,99007.38
2023-05-24T07:11:38.580Z,99038.78
2023-05-24T07:14:06.720Z,99042.22
2023-05-24T07:16:34.707Z,99036.06
2023-05-24T07:19:04.747Z,99042.16
2023-05-24T07:21:34.620Z,99024.28
2023-05-24T07:24:04.025Z,99036.63
2023-05-24T07:26:32.083Z,99037.38
2023-05-24T07:29:00.033Z,99041.66
2023-05-24T07:31:29.924Z,99026.66
2023-05-24T07:33:57.933Z,99046.19
2023-05-24T07:36:26.208Z,99051.69
2023-05-24T07:38:55.510Z,99008.03
2023-05-24T07:41:27.065Z,99054.91
2023-05-24T07:43:55.099Z,99036.22
2023-05-24T07:46:23.254Z,99058.56
2023-05-24T07:48:51.538Z,99041.66
2023-05-24T07:51:20.683Z,99044.50
2023-05-24T07:53:48.627Z,99057.72
2023-05-24T07:56:18.016Z,99050.53
2023-05-24T07:58:46.956Z,99058.38
2023-05-24T08:01:15.902Z,99058.28
2023-05-24T08:03:44.025Z,99061.31
2023-05-24T08:06:12.997Z,99048.31
2023-05-24T08:08:41.461Z,99061.25
2023-05-24T08:11:09.373Z,99067.69
2023-05-24T08:13:38.713Z,99074.50
2023-05-24T08:16:06.871Z,99064.31
2023-05-24T08:18:34.818Z,99077.47
2023-05-24T08:21:02.787Z,99018.19
2023-05-24T08:23:31.086Z,99069.44
2023-05-24T08:25:59.984Z,99068.25
2023-05-24T08:28:28.260Z,99067.22
2023-05-24T08:30:58.685Z,99075.72
2023-05-24T08:33:26.636Z,99069.91
2023-05-24T08:35:54.582Z,99070.59
2023-05-24T08:38:22.585Z,99075.31
2023-05-24T08:40:50.540Z,99066.28
2023-05-24T08:43:19.698Z,99076.69
2023-05-24T08:45:48.079Z,99067.41
2023-05-24T08:48:21.303Z,99053.25
2023-05-24T08:50:53.306Z,99068.00
2023-05-24T08:53:23.718Z,99071.88
2023-05-24T08:55:53.440Z,99074.00
2023-05-24T08:58:21.656Z,99081.19
2023-05-24T09:00:49.634Z,99082.19
2023-05-24T09:03:20.564Z,99077.81
2023-05-24T09:05:48.877Z,99077.59
2023-05-24T09:08:18.485Z,99070.13
2023-05-24T09:10:54.585Z,99080.97
2023-05-24T09:13:25.179Z,99081.06
2023-05-24T09:15:53.905Z,99084.81
2023-05-24T09:18:23.333Z,99083.16
2023-05-24T09:20:51.518Z,99083.66
2023-05-24T09:23:19.799Z,99084.03
2023-05-24T09:25:49.453Z,99081.59
2023-05-24T09:28:19.305Z,99090.19
2023-05-24T09:30:58.649Z,99085.78
2023-05-24T09:33:32.456Z,99088.69
2023-05-24T09:36:01.074Z,99086.38
2023-05-24T09:38:29.780Z,99089.53
2023-05-24T09:41:05.858Z,99096.31
2023-05-24T09:43:36.331Z,99086.53
2023-05-24T09:46:05.778Z,99094.22
2023-05-24T09:48:35.097Z,99044.34
2023-05-24T09:51:09.836Z,99096.84
2023-05-24T09:53:38.728Z,99106.75
2023-05-24T09:56:08.667Z,99103.09
2023-05-24T09:58:37.543Z,99102.69
2023-05-24T10:01:07.719Z,99104.53
2023-05-24T10:03:37.950Z,99111.16
2023-05-24T10:06:07.927Z,99104.78
2023-05-24T10:08:37.105Z,99110.97
2023-05-24T10:11:06.101Z,99077.53
2023-05-24T10:13:35.983Z,99109.81
2023-05-24T10:16:04.293Z,99106.06
2023-05-24T10:18:32.382Z,99108.28
2023-05-24T10:21:03.002Z,99111.31
2023-05-24T10:23:32.722Z,99110.69
2023-05-24T10:26:06.583Z,99116.66
2023-05-24T10:28:37.311Z,99086.69
2023-05-24T10:31:11.355Z,99117.19
2023-05-24T10:33:40.223Z,99109.22
2023-05-24T10:36:12.021Z,99113.75
2023-05-24T10:38:41.568Z,99108.41
2023-05-24T10:41:10.143Z,99105.47
2023-05-24T10:43:38.994Z,99107.56
2023-05-24T10:46:10.405Z,99105.28
2023-05-24T10:48:42.131Z,99107.72
2023-05-24T10:51:34.166Z,99099.75
2023-05-24T10:54:17.821Z,99103.84
2023-05-24T10:56:48.132Z,99097.91
2023-05-24T10:59:37.303Z,99099.06
2023-05-24T11:02:09.889Z,99095.09
2023-05-24T11:04:40.159Z,99056.34
2023-05-24T11:07:10.782Z,99090.66
2023-05-24T11:09:46.011Z,99097.09
2023-05-24T11:12:17.863Z,99095.09
2023-05-24T11:14:50.402Z,99099.44
2023-05-24T11:17:19.878Z,99094.22
2023-05-24T11:19:49.275Z,99098.09
2023-05-24T11:22:21.265Z,99093.06
2023-05-24T11:24:49.680Z,99093.50
2023-05-24T11:27:18.121Z,99095.75
2023-05-24T11:29:47.579Z,99106.09
2023-05-24T11:32:20.691Z,99093.34
2023-05-24T11:34:49.834Z,99066.97
2023-05-24T11:37:19.581Z,99088.06
2023-05-24T11:39:53.146Z,99062.44
2023-05-24T11:42:23.582Z,99084.41
2023-05-24T11:44:52.850Z,99062.97
2023-05-24T11:47:22.111Z,99083.41
2023-05-24T11:49:52.052Z,99072.13
2023-05-24T11:52:21.427Z,99073.84
2023-05-24T11:54:50.827Z,99068.91
2023-05-24T11:57:20.875Z,99068.53
2023-05-24T11:59:49.594Z,99064.09
2023-05-24T12:02:18.147Z,99053.25
2023-05-24T12:04:46.937Z,99056.78
2023-05-24T12:07:15.437Z,99055.25
2023-05-24T12:09:44.863Z,99054.19
2023-05-24T12:12:12.877Z,99046.56
2023-05-24T12:14:40.882Z,99052.09
2023-05-24T12:17:16.242Z,99055.34
2023-05-24T12:19:45.299Z,99047.69
2023-05-24T12:22:13.304Z,99049.91
2023-05-24T12:24:42.441Z,99046.56
2023-05-24T12:27:12.613Z,99032.38
2023-05-24T12:29:42.772Z,99042.66
2023-05-24T12:32:14.290Z,99037.50
2023-05-24T12:34:44.220Z,99030.72
2023-05-24T12:37:14.177Z,99034.72
2023-05-24T12:39:43.871Z,99017.41
2023-05-24T12:42:14.187Z,99032.25
2023-05-24T12:44:42.477Z,99024.59
2023-05-24T12:47:11.853Z,99013.22
2023-05-24T12:49:40.066Z,99017.03
2023-05-24T12:52:08.122Z,99017.59
2023-05-24T12:54:36.191Z,99014.13
2023-05-24T12:57:04.324Z,99009.84
2023-05-24T12:59:35.117Z,98977.34
2023-05-24T13:02:03.213Z,99010.09
2023-05-24T13:04:33.721Z,99002.75
2023-05-24T13:07:02.994Z,99000.06
2023-05-24T13:09:30.961Z,99003.63
2023-05-24T13:11:59.135Z,99000.78
2023-05-24T13:14:27.494Z,98990.50
2023-05-24T13:16:56.977Z,98994.88
2023-05-24T13:19:24.952Z,98949.94
2023-05-24T13:21:52.910Z,98951.47
2023-05-24T13:24:20.919Z,98976.28
2023-05-24T13:26:52.241Z,98974.22
2023-05-24T13:31:57.474Z,98965.81
2023-05-24T13:34:26.263Z,98931.19
2023-05-24T13:36:55.117Z,98964.00
2023-05-24T13:39:23.991Z,98965.56
2023-05-24T13:41:53.780Z,98952.34
2023-05-24T13:44:21.989Z,98957.47
2023-05-24T13:46:51.103Z,98943.34
2023-05-24T13:49:20.572Z,98954.56
2023-05-24T13:51:49.427Z,98903.97
2023-05-24T13:54:17.648Z,98949.31
2023-05-24T13:56:45.734Z,98918.38
2023-05-24T13:59:13.746Z,98952.91
2023-05-24T14:01:43.008Z,98908.31
2023-05-24T14:04:11.047Z,98958.84
2023-05-24T14:06:40.421Z,98957.19
2023-05-24T14:09:09.296Z,98952.78
2023-05-24T14:11:37.526Z,98942.19
2023-05-24T14:16:37.104Z,98893.03
2023-05-24T14:19:05.760Z,98955.44
2023-05-24T14:21:33.887Z,98950.06
2023-05-24T14:24:05.562Z,98947.47
2023-05-24T14:26:33.561Z,98953.06
2023-05-24T14:29:01.701Z,98954.47
2023-05-24T14:31:29.777Z,98952.81
2023-05-24T14:33:57.721Z,98953.22
2023-05-24T14:36:27.998Z,98944.19
2023-05-24T14:38:57.851Z,98950.34
2023-05-24T14:41:27.496Z,98945.09
2023-05-24T14:43:59.310Z,98946.56
2023-05-24T14:46:27.396Z,98952.22
2023-05-24T14:48:57.070Z,98943.13
2023-05-24T14:51:25.207Z,98943.28
2023-05-24T14:53:53.160Z,98940.16
2023-05-24T14:56:24.585Z,98937.69
2023-05-24T14:58:55.150Z,98935.09
2023-05-24T15:01:24.659Z,98942.69
2023-05-24T15:03:53.031Z,98940.16
2023-05-24T15:06:22.487Z,98942.97
2023-05-24T15:08:51.533Z,98936.22
2023-05-24T15:11:19.497Z,98910.41
2023-05-24T15:13:47.455Z,98929.91
2023-05-24T15:16:17.119Z,98931.59
2023-05-24T15:18:45.057Z,98938.22
2023-05-24T15:21:13.011Z,98920.56
2023-05-24T15:23:41.629Z,98931.91
2023-05-24T15:26:09.602Z,98928.09
2023-05-24T15:28:37.522Z,98927.22
2023-05-24T15:31:05.619Z,98916.88
2023-05-24T15:33:37.350Z,98907.06
2023-05-24T15:36:05.611Z,98920.31
2023-05-24T15:38:33.521Z,98925.69
2023-05-24T15:41:01.593Z,98922.09
2023-05-24T15:43:30.976Z,98916.78
2023-05-24T15:45:58.952Z,98917.00
2023-05-24T15:48:26.948Z,98912.81
2023-05-24T15:51:25.781Z,98914.16
2023-05-24T15:53:44.155Z,98912.03
2023-05-24T15:56:12.284Z,98893.03
2023-05-24T15:58:40.327Z,98920.81
2023-05-24T16:01:08.431Z,98914.91
2023-05-24T16:03:38.176Z,98913.38
2023-05-24T16:06:08.314Z,98909.88
2023-05-24T16:08:36.248Z,98913.63
2023-05-24T16:11:08.200Z,98911.91
2023-05-24T16:13:36.262Z,98906.50
2023-05-24T16:16:04.282Z,98898.50
2023-05-24T16:18:34.636Z,98907.41
2023-05-24T16:21:02.740Z,98906.97
2023-05-24T16:23:32.061Z,98904.22
2023-05-24T16:26:00.036Z,98909.91
2023-05-24T16:28:28.121Z,98906.59
2023-05-24T16:30:57.520Z,98880.75
2023-05-24T16:33:26.125Z,98911.31
2023-05-24T16:35:57.832Z,98905.19
2023-05-24T16:38:27.125Z,98907.34
2023-05-24T16:40:56.515Z,98908.91
2023-05-24T16:43:24.677Z,98908.84
2023-05-24T16:45:53.070Z,98912.31
2023-05-24T16:48:23.211Z,98903.56
2023-05-24T16:50:53.954Z,98912.66
2023-05-24T16:53:23.043Z,98920.03
2023-05-24T16:55:54.180Z,98913.09
2023-05-24T16:58:24.327Z,98921.03
2023-05-24T17:00:54.520Z,98920.03
2023-05-24T17:03:28.073Z,98925.59
2023-05-24T17:06:01.850Z,98921.56
2023-05-24T17:08:30.271Z,98924.44
2023-05-24T17:10:59.111Z,98912.66
2023-05-24T17:13:28.548Z,98913.81
2023-05-24T17:15:57.084Z,98922.75
2023-05-24T17:18:31.164Z,98913.47
2023-05-24T17:21:01.598Z,98897.66
2023-05-24T17:23:32.233Z,98913.84
2023-05-24T17:26:01.113Z,98917.31
2023-05-24T17:28:30.674Z,98923.75
2023-05-24T17:31:00.004Z,98927.94
2023-05-24T17:33:29.166Z,98928.59
2023-05-24T17:35:58.107Z,98924.38
2023-05-24T17:38:26.408Z,98916.50
2023-05-24T17:40:57.192Z,98917.91
2023-05-24T17:43:28.766Z,98925.03
2023-05-24T17:46:04.030Z,98926.69
2023-05-24T17:48:32.753Z,98906.16
2023-05-24T17:51:01.016Z,98909.91
2023-05-24T17:53:31.801Z,98925.97
2023-05-24T17:56:00.778Z,98859.91
2023-05-24T17:58:30.848Z,98923.16
2023-05-24T18:01:00.304Z,98927.66
2023-05-24T18:03:28.344Z,98927.16
2023-05-24T18:05:57.405Z,98931.25
2023-05-24T18:08:26.090Z,98929.66
2023-05-24T18:10:54.098Z,98921.59
2023-05-24T18:13:22.094Z,98927.81
2023-05-24T18:15:50.422Z,98935.78
2023-05-24T18:18:20.212Z,98933.78
2023-05-24T18:20:48.273Z,98938.31
2023-05-24T18:23:16.200Z,98945.75
2023-05-24T18:25:45.252Z,98941.06
2023-05-24T18:28:13.357Z,98937.69
2023-05-24T18:30:43.414Z,98931.00
2023-05-24T18:33:11.524Z,98946.69
2023-05-24T18:35:41.137Z,98949.22
2023-05-24T18:38:09.202Z,98940.94
2023-05-24T18:40:37.195Z,98949.84
2023-05-24T18:43:05.634Z,98927.72
2023-05-24T18:45:33.630Z,98946.31
2023-05-24T18:48:01.804Z,98949.47
2023-05-24T18:50:29.770Z,98951.75
2023-05-24T18:52:59.040Z,98957.88
2023-05-24T18:55:26.980Z,98955.53
2023-05-24T18:57:54.882Z,98954.38
2023-05-24T19:00:24.582Z,98954.34
2023-05-24T19:02:52.674Z,98949.34
2023-05-24T19:05:21.076Z,98960.91
2023-05-24T19:07:48.996Z,98965.19
2023-05-24T19:10:18.727Z,98964.88
2023-05-24T19:12:46.690Z,98969.66
2023-05-24T19:15:14.620Z,98971.50
2023-05-24T19:17:42.587Z,98967.44
2023-05-24T19:20:11.653Z,98980.81
2023-05-24T19:22:39.773Z,98965.31
2023-05-24T19:25:08.775Z,98953.50
2023-05-24T19:27:44.773Z,98973.75
2023-05-24T19:30:23.160Z,98966.00
2023-05-24T19:32:51.114Z,98970.94
2023-05-24T19:35:19.094Z,98976.41
2023-05-24T19:37:47.425Z,98980.41
2023-05-24T19:40:15.367Z,98988.38
2023-05-24T19:42:44.734Z,98985.22
2023-05-24T19:45:13.491Z,98995.69
2023-05-24T19:47:41.572Z,99001.88
2023-05-24T19:50:10.678Z,99004.84
2023-05-24T19:52:39.785Z,99006.63
2023-05-24T19:55:09.609Z,99004.63
2023-05-24T19:57:37.510Z,99009.03
2023-05-24T20:00:09.441Z,99006.44
2023-05-24T20:02:38.230Z,98996.56
2023-05-24T20:05:07.296Z,98991.84
2023-05-24T20:07:35.208Z,99005.66
2023-05-24T20:10:05.192Z,99008.97
2023-05-24T20:12:34.861Z,99005.13
2023-05-24T20:15:03.029Z,98961.97
2023-05-24T20:17:32.568Z,99002.91
2023-05-24T20:20:00.841Z,99007.41
2023-05-24T20:22:29.573Z,99012.41
2023-05-24T20:24:57.663Z,99003.63
2023-05-24T20:27:26.027Z,98998.81
2023-05-24T20:29:54.040Z,99005.72
2023-05-24T20:32:22.463Z,99008.00
2023-05-24T20:34:51.794Z,99006.09
2023-05-24T20:37:19.961Z,99013.66
2023-05-24T20:39:47.956Z,99016.94
2023-05-24T20:42:16.690Z,99004.50
2023-05-24T20:44:44.596Z,99010.53
2023-05-24T20:47:12.618Z,99018.50
2023-05-24T20:49:40.559Z,99010.28
2023-05-24T20:52:09.897Z,99015.28
2023-05-24T20:54:38.534Z,99010.34
2023-05-24T20:57:07.390Z,99006.06
2023-05-24T20:59:35.709Z,99006.97
2023-05-24T21:02:03.733Z,99006.50
2023-05-24T21:04:31.717Z,98965.81
2023-05-24T21:06:59.743Z,99012.03
2023-05-24T21:09:29.848Z,99010.09
2023-05-24T21:11:58.467Z,99007.44
2023-05-24T21:14:27.322Z,99014.09
2023-05-24T21:16:56.734Z,99005.25
2023-05-24T21:19:24.802Z,99003.34
2023-05-24T21:21:52.732Z,98994.16
2023-05-24T21:24:20.668Z,99010.47
2023-05-24T21:26:49.999Z,99002.22
2023-05-24T21:29:17.978Z,99012.63
2023-05-24T21:31:46.333Z,98999.94
2023-05-24T21:34:14.279Z,99003.22
2023-05-24T21:36:42.184Z,99007.13
2023-05-24T21:39:10.162Z,99005.84
2023-05-24T21:41:39.277Z,99012.00
2023-05-24T21:44:09.299Z,99011.34
2023-05-24T21:46:37.435Z,99011.16
2023-05-24T21:49:05.430Z,99011.56
2023-05-24T21:51:33.732Z,99017.88
2023-05-24T21:54:01.728Z,99016.28
2023-05-24T21:56:29.714Z,99023.09
2023-05-24T21:58:57.605Z,99017.13
2023-05-24T22:01:28.391Z,99004.22
2023-05-24T22:03:56.530Z,99022.16
2023-05-24T22:06:25.128Z,98989.38
2023-05-24T22:08:53.120Z,99015.50
2023-05-24T22:11:21.419Z,99014.72
2023-05-24T22:13:49.398Z,99010.31
2023-05-24T22:16:17.507Z,99012.00
2023-05-24T22:18:48.028Z,99010.41
2023-05-24T22:21:16.040Z,99012.50
2023-05-24T22:23:44.126Z,98982.00
2023-05-24T22:26:12.967Z,99017.88
2023-05-24T22:28:51.917Z,99013.34
2023-05-24T22:31:20.135Z,98992.44
2023-05-24T22:33:49.907Z,99020.63
2023-05-24T22:36:18.815Z,99022.50
2023-05-24T22:38:46.813Z,99022.22
2023-05-24T22:41:14.773Z,99017.38
2023-05-24T22:43:42.746Z,99018.09
2023-05-24T22:46:10.848Z,99014.31
2023-05-24T22:48:40.773Z,99014.63
2023-05-24T22:51:12.272Z,99019.72
2023-05-24T22:53:40.318Z,99010.78
2023-05-24T22:56:10.543Z,99005.22
2023-05-24T22:58:39.257Z,99005.66
2023-05-24T23:01:07.487Z,99006.22
2023-05-24T23:03:35.736Z,98996.28
2023-05-24T23:06:05.711Z,99003.28
2023-05-24T23:08:35.836Z,99005.72
2023-05-24T23:11:10.281Z,98999.72
2023-05-24T23:13:38.569Z,99000.34
2023-05-24T23:16:07.200Z,98963.34
2023-05-24T23:18:37.887Z,99003.56
2023-05-24T23:21:06.070Z,98986.44
2023-05-24T23:23:37.760Z,98978.47
2023-05-24T23:26:05.985Z,98999.38
2023-05-24T23:28:34.190Z,99001.69
2023-05-24T23:31:02.265Z,99001.13
2023-05-24T23:33:30.243Z,99004.25
2023-05-24T23:35:58.235Z,98953.88
2023-05-24T23:38:26.258Z,99006.16
2023-05-24T23:40:55.606Z,99001.09
2023-05-24T23:43:23.614Z,99007.50
2023-05-24T23:45:51.589Z,99002.19
2023-05-24T23:48:21.017Z,98988.03
2023-05-24T23:50:54.364Z,98996.13
2023-05-24T23:53:22.704Z,98998.09
2023-05-24T23:55:50.886Z,98981.75
2023-05-24T23:58:20.306Z,98996.81
